Time;durP1;ratioP1;P1;durP2;ratioP2;P2;SDS_P1;SDS_P2;PMS_P1;PMS_P2;Temp;Humidity;BMP_temperature;BMP_pressure;BME280_temperature;BME280_humidity;BME280_pressure;Samples;Min_cycle;Max_cycle;Signal;HPM_P1;HPM_P2
2021/05/26 00:00:58;;;;;;;2.90;2.52;;;;;;;15.80;100.00;99404.00;1722163;81;21109;-64
2021/05/26 00:03:26;;;;;;;5.00;2.72;;;;;;;15.80;100.00;99402.64;1722315;82;21057;-66
2021/05/26 00:05:53;;;;;;;6.58;2.65;;;;;;;15.79;100.00;99401.57;1722263;83;21568;-66
2021/05/26 00:08:30;;;;;;;3.22;2.72;;;;;;;15.77;100.00;99411.33;1722369;81;21013;-65
2021/05/26 00:11:01;;;;;;;2.52;2.33;;;;;;;15.78;100.00;99411.59;1722499;83;20950;-63
2021/05/26 00:13:29;;;;;;;3.85;2.70;;;;;;;15.77;100.00;99409.17;1722141;81;21061;-63
2021/05/26 00:15:57;;;;;;;3.10;2.77;;;;;;;15.74;100.00;99394.88;1722094;81;20958;-66
2021/05/26 00:18:26;;;;;;;5.10;2.55;;;;;;;15.74;100.00;99405.14;1722622;81;20990;-63
2021/05/26 00:20:53;;;;;;;3.70;3.20;;;;;;;15.73;100.00;99397.34;1722799;81;20982;-64
2021/05/26 00:23:21;;;;;;;3.15;2.65;;;;;;;15.75;100.00;99395.12;1722870;83;20932;-64
2021/05/26 00:25:49;;;;;;;7.33;3.02;;;;;;;15.77;100.00;99387.52;1722871;81;21185;-65
2021/05/26 00:28:17;;;;;;;2.65;2.42;;;;;;;15.77;100.00;99388.88;1722716;81;21070;-63
2021/05/26 00:30:52;;;;;;;3.20;2.40;;;;;;;15.78;100.00;99378.33;1722568;81;20940;-65
2021/05/26 00:33:20;;;;;;;4.95;2.67;;;;;;;15.80;100.00;99378.29;1722642;81;21632;-63
2021/05/26 00:35:47;;;;;;;4.62;2.92;;;;;;;15.81;100.00;99375.03;1722797;81;20967;-65
2021/05/26 00:38:17;;;;;;;3.85;3.08;;;;;;;15.79;100.00;99376.66;1722795;81;21097;-65
2021/05/26 00:40:44;;;;;;;4.70;3.17;;;;;;;15.80;100.00;99388.28;1722698;81;20931;-64
2021/05/26 00:43:12;;;;;;;3.15;2.85;;;;;;;15.76;100.00;99383.22;1722653;81;21050;-65
2021/05/26 00:45:39;;;;;;;;;;;;;;;15.75;100.00;99383.77;1702749;83;21518;-64
2021/05/26 00:48:07;;;;;;;5.55;3.20;;;;;;;15.74;100.00;99384.05;1722743;81;20215;-64
2021/05/26 00:50:37;;;;;;;5.15;2.90;;;;;;;15.71;100.00;99376.53;1722785;83;21099;-64
2021/05/26 00:53:08;;;;;;;3.65;2.70;;;;;;;15.68;100.00;99375.70;1722630;81;20884;-65
2021/05/26 00:55:35;;;;;;;3.80;3.12;;;;;;;15.67;100.00;99378.17;1722502;81;20997;-65
2021/05/26 00:58:05;;;;;;;3.00;2.70;;;;;;;15.68;100.00;99383.30;1729805;81;20979;-66
2021/05/26 01:00:34;;;;;;;;;;;;;;;15.66;100.00;99377.37;1744195;82;20928;-68
2021/05/26 01:03:08;;;;;;;3.37;3.08;;;;;;;15.65;100.00;99371.69;1694631;83;21109;-66
2021/05/26 01:05:38;;;;;;;6.10;3.45;;;;;;;15.62;100.00;99373.63;1715078;82;21007;-66
2021/05/26 01:08:05;;;;;;;3.87;3.02;;;;;;;15.59;100.00;99372.87;1741348;82;20932;-66
2021/05/26 01:10:34;;;;;;;3.62;3.02;;;;;;;15.57;100.00;99378.55;1738845;81;21032;-65
2021/05/26 01:13:15;;;;;;;4.55;3.08;;;;;;;15.57;100.00;99378.55;1741434;82;20932;-65
2021/05/26 01:15:44;;;;;;;5.70;3.12;;;;;;;15.55;100.00;99379.39;1741437;82;21108;-67
2021/05/26 01:18:23;;;;;;;4.17;3.45;;;;;;;15.53;100.00;99376.20;1741423;82;21026;-67
2021/05/26 01:20:54;;;;;;;3.20;2.90;;;;;;;15.54;100.00;99371.03;1741593;82;21011;-67
2021/05/26 01:23:22;;;;;;;3.17;2.87;;;;;;;15.57;100.00;99368.29;1741489;82;20904;-65
2021/05/26 01:25:56;;;;;;;3.98;2.90;;;;;;;15.60;100.00;99368.50;1736184;82;20955;-66
2021/05/26 01:28:25;;;;;;;7.35;3.42;;;;;;;15.61;100.00;99362.56;1741509;82;21136;-66
2021/05/26 01:30:53;;;;;;;5.10;3.40;;;;;;;15.62;100.00;99364.16;1738763;82;20944;-64
2021/05/26 01:33:21;;;;;;;5.97;3.47;;;;;;;15.62;100.00;99355.48;1730698;82;21005;-66
2021/05/26 01:35:49;;;;;;;4.28;3.25;;;;;;;15.63;100.00;99358.47;1728596;81;20925;-66
2021/05/26 01:38:22;;;;;;;3.95;3.30;;;;;;;15.62;100.00;99364.95;1728848;81;20952;-65
2021/05/26 01:40:50;;;;;;;5.53;3.22;;;;;;;15.60;100.00;99359.03;1700000;83;21190;-65
2021/05/26 01:43:17;;;;;;;6.75;3.42;;;;;;;15.60;100.00;99363.64;1699997;83;21539;-65
2021/05/26 01:45:45;;;;;;;3.57;3.23;;;;;;;15.54;100.00;99366.17;1728838;83;21526;-65
2021/05/26 01:48:13;;;;;;;5.97;3.25;;;;;;;15.54;100.00;99366.17;1729063;83;21662;-66
2021/05/26 01:50:43;;;;;;;3.90;3.42;;;;;;;15.53;100.00;99376.20;1728894;81;20874;-66
2021/05/26 01:53:11;;;;;;;6.77;3.30;;;;;;;15.52;100.00;99373.22;1728980;83;21140;-70
2021/05/26 01:55:39;;;;;;;8.28;3.67;;;;;;;15.51;100.00;99377.58;1731289;81;24696;-64
2021/05/26 01:58:08;;;;;;;3.40;3.10;;;;;;;15.51;100.00;99377.58;1741316;82;20920;-66
2021/05/26 02:00:45;;;;;;;4.00;3.40;;;;;;;15.50;100.00;99373.25;1741545;82;21078;-66
2021/05/26 02:03:13;;;;;;;3.37;3.08;;;;;;;15.47;100.00;99363.81;1741740;82;20994;-64
2021/05/26 02:05:40;;;;;;;6.17;3.90;;;;;;;15.43;100.00;99359.55;1741639;82;21110;-66
2021/05/26 02:08:07;;;;;;;6.35;4.50;;;;;;;15.39;100.00;99355.81;1741864;82;21027;-65
2021/05/26 02:13:21;;;;;;;7.05;4.92;;;;;;;15.30;100.00;99342.66;1741492;82;21557;-65
2021/05/26 02:15:55;;;;;;;5.20;4.70;;;;;;;15.28;100.00;99337.29;1741684;82;21268;-64
2021/05/26 02:18:23;;;;;;;6.87;4.90;;;;;;;15.19;100.00;99341.20;1741842;82;21120;-62
2021/05/26 02:20:51;;;;;;;11.47;5.10;;;;;;;15.09;100.00;99346.19;1741849;82;21019;-65
2021/05/26 02:23:17;;;;;;;6.58;5.67;;;;;;;15.02;100.00;99347.08;1741745;82;21483;-62
2021/05/26 02:25:45;;;;;;;7.47;5.08;;;;;;;14.98;100.00;99333.87;1741722;82;21426;-62
2021/05/26 02:28:12;;;;;;;5.53;5.00;;;;;;;14.97;100.00;99363.35;1741650;82;20968;-62
2021/05/26 02:30:39;;;;;;;7.53;4.83;;;;;;;14.90;100.00;99362.34;1741739;82;21195;-60
2021/05/26 02:33:06;;;;;;;9.28;5.08;;;;;;;14.79;100.00;99360.27;1739122;81;21690;-61
2021/05/26 02:35:33;;;;;;;10.50;4.78;;;;;;;14.69;100.00;99332.56;1741491;82;21038;-61
2021/05/26 02:38:00;;;;;;;8.05;5.10;;;;;;;14.57;100.00;99293.23;1741617;82;21051;-61
2021/05/26 02:40:28;;;;;;;;;;;;;;;14.49;100.00;99294.39;1744407;82;20980;-61
2021/05/26 02:42:56;;;;;;;;;;;;;;;14.44;100.00;99313.34;1744489;81;21120;-61
2021/05/26 02:45:23;;;;;;;12.05;4.97;;;;;;;14.39;100.00;99318.25;1694203;84;20531;-60
2021/05/26 02:47:51;;;;;;;7.78;4.92;;;;;;;14.33;100.00;99342.31;1741700;82;20991;-62
2021/05/26 02:50:19;;;;;;;10.30;5.33;;;;;;;14.29;100.00;99364.23;1741701;82;20952;-60
2021/05/26 02:52:48;;;;;;;6.75;5.08;;;;;;;14.26;100.00;99382.36;1741752;82;20968;-62
2021/05/26 02:55:16;;;;;;;5.90;5.30;;;;;;;14.26;100.00;99384.50;1741801;82;21108;-61
2021/05/26 02:57:47;;;;;;;6.65;5.08;;;;;;;14.28;100.00;99399.88;1740804;82;20910;-63
2021/05/26 03:00:21;;;;;;;6.45;4.90;;;;;;;14.27;100.00;99413.10;1701697;83;20989;-60
2021/05/26 03:02:49;;;;;;;6.62;5.90;;;;;;;14.24;100.00;99429.07;1724661;83;20977;-62
2021/05/26 03:05:18;;;;;;;7.47;5.25;;;;;;;14.19;100.00;99438.00;1728997;83;21029;-62
2021/05/26 03:07:45;;;;;;;5.97;5.37;;;;;;;14.16;100.00;99437.22;1728839;83;21694;-61
2021/05/26 03:10:17;;;;;;;7.53;6.08;;;;;;;14.18;100.00;99451.77;1728743;81;21016;-61
2021/05/26 03:12:46;;;;;;;7.00;6.33;;;;;;;14.20;100.00;99463.90;1728735;82;20965;-63
2021/05/26 03:15:17;;;;;;;10.00;7.40;;;;;;;14.22;100.00;99467.13;1728435;83;20913;-61
2021/05/26 03:17:44;;;;;;;8.95;8.05;;;;;;;14.25;100.00;99480.06;1728818;82;20929;-60
2021/05/26 03:20:15;;;;;;;11.53;8.88;;;;;;;14.29;100.00;99468.97;1728791;82;21047;-60
2021/05/26 03:22:48;;;;;;;12.75;8.98;;;;;;;14.31;100.00;99474.91;1720612;83;21088;-60
2021/05/26 03:25:32;;;;;;;10.35;8.18;;;;;;;14.35;100.00;99469.73;1724394;83;20941;-60
2021/05/26 03:28:00;;;;;;;8.70;7.80;;;;;;;14.36;100.00;99456.52;1728138;83;20993;-60
2021/05/26 03:30:28;;;;;;;9.03;8.05;;;;;;;14.37;100.00;99465.67;1728899;83;20972;-60
2021/05/26 03:32:55;;;;;;;11.73;7.63;;;;;;;14.38;100.00;99473.25;1729184;83;21180;-61
2021/05/26 03:35:22;;;;;;;8.93;7.73;;;;;;;14.38;100.00;99481.35;1728928;83;20913;-60
2021/05/26 03:37:49;;;;;;;12.78;7.47;;;;;;;14.39;100.00;99484.30;1737775;81;20964;-62
2021/05/26 03:40:18;;;;;;;9.05;8.15;;;;;;;14.39;100.00;99488.35;1741814;82;20951;-60
2021/05/26 03:42:47;;;;;;;10.85;7.08;;;;;;;14.41;100.00;99496.98;1741538;81;20970;-61
2021/05/26 03:45:16;;;;;;;8.70;6.60;;;;;;;14.41;100.00;99494.28;1735646;82;21533;-61
2021/05/26 03:47:46;;;;;;;8.13;7.33;;;;;;;14.45;100.00;99483.16;1741581;82;20975;-61
2021/05/26 03:50:14;;;;;;;15.33;9.60;;;;;;;14.47;100.00;99484.25;1741847;82;20960;-61
2021/05/26 03:52:43;;;;;;;13.78;10.70;;;;;;;14.48;100.00;99474.52;1741618;82;21470;-61
2021/05/26 03:55:14;;;;;;;11.80;10.63;;;;;;;14.50;100.00;99464.25;1714507;82;22088;-61
2021/05/26 03:57:41;;;;;;;12.78;9.78;;;;;;;14.52;100.00;99464.75;1740999;81;21101;-61
2021/05/26 04:00:12;;;;;;;9.35;8.38;;;;;;;14.56;100.00;99467.19;1723679;81;20983;-60
2021/05/26 04:02:41;;;;;;;9.55;8.08;;;;;;;14.60;100.00;99477.42;1722018;83;20991;-60
2021/05/26 04:05:10;;;;;;;;;;;;;;;14.61;100.00;99477.70;1725394;83;21596;-61
2021/05/26 04:07:39;;;;;;;8.70;7.80;;;;;;;14.63;100.00;99479.03;1722822;83;20249;-61
2021/05/26 04:10:09;;;;;;;10.60;7.95;;;;;;;14.64;100.00;99480.63;1722809;82;21151;-61
2021/05/26 04:12:36;;;;;;;;;;;;;;;14.65;100.00;99480.08;1702696;83;20999;-60
2021/05/26 04:15:07;;;;;;;261.35;209.90;;;;;;;14.70;100.00;99480.03;1669076;84;20150;-61
2021/05/26 04:17:54;;;;;;;41.33;36.90;;;;;;;14.71;100.00;99488.42;1688124;83;21028;-61
2021/05/26 04:20:22;;;;;;;100.72;91.72;;;;;;;14.73;100.00;99491.10;1674795;85;20921;-61
2021/05/26 04:22:49;;;;;;;52.65;48.08;;;;;;;14.76;100.00;99495.12;1722932;81;21106;-61
2021/05/26 04:25:16;;;;;;;43.58;39.05;;;;;;;14.80;100.00;99490.78;1722474;83;21023;-60
2021/05/26 04:27:45;;;;;;;17.00;15.40;;;;;;;14.88;100.00;99492.87;1662638;86;20939;-62
2021/05/26 04:30:17;;;;;;;14.63;13.05;;;;;;;14.94;100.00;99499.86;1693717;84;21607;-59
2021/05/26 04:32:44;;;;;;;16.57;11.60;;;;;;;15.00;100.00;99493.85;1662525;86;20963;-60
2021/05/26 04:35:13;;;;;;;13.03;10.55;;;;;;;15.03;100.00;99497.33;1694126;84;21767;-61
2021/05/26 04:37:41;;;;;;;18.23;16.52;;;;;;;15.06;100.00;99500.01;1684266;83;21152;-60
2021/05/26 04:40:31;;;;;;;26.80;20.92;;;;;;;15.10;100.00;99505.12;1734494;81;20978;-60
2021/05/26 04:42:59;;;;;;;8.90;8.00;;;;;;;15.13;100.00;99501.28;1634195;87;21089;-62
2021/05/26 04:45:26;;;;;;;10.75;9.75;;;;;;;15.22;100.00;99496.08;1627209;88;21082;-61
2021/05/26 04:47:54;;;;;;;9.65;7.25;;;;;;;15.28;100.00;99492.21;1644701;86;21142;-62
2021/05/26 04:50:29;;;;;;;8.35;5.97;;;;;;;15.36;100.00;99491.61;1667731;84;21151;-61
2021/05/26 04:52:57;;;;;;;11.12;7.15;;;;;;;15.44;100.00;99498.28;1667283;84;21117;-60
2021/05/26 04:55:24;;;;;;;30.85;27.48;;;;;;;15.43;100.00;99500.19;1667846;84;21001;-60
2021/05/26 04:58:06;;;;;;;27.15;20.00;;;;;;;15.44;100.00;99502.34;1667252;84;21103;-60
2021/05/26 05:00:33;;;;;;;61.63;48.28;;;;;;;15.42;100.00;99497.76;1666644;84;21188;-61
2021/05/26 05:03:01;;;;;;;25.00;19.57;;;;;;;15.40;100.00;99498.59;1665387;84;21050;-61
2021/05/26 05:05:32;;;;;;;15.32;13.72;;;;;;;15.39;100.00;99492.93;1690045;83;21004;-61
2021/05/26 05:08:05;;;;;;;12.58;11.25;;;;;;;15.41;100.00;99494.81;1695734;83;20996;-61
2021/05/26 05:10:33;;;;;;;8.83;7.62;;;;;;;15.48;100.00;99497.95;1695483;83;21012;-61
2021/05/26 05:13:00;;;;;;;6.20;5.62;;;;;;;15.52;100.00;99504.41;1695755;83;21082;-60
2021/05/26 05:15:28;;;;;;;;;;;;;;;15.53;100.00;99514.15;1669528;84;21573;-61
2021/05/26 05:17:57;;;;;;;5.97;4.70;;;;;;;15.55;100.00;99516.00;1666254;86;20180;-63
2021/05/26 05:20:28;;;;;;;13.32;11.93;;;;;;;15.59;100.00;99516.24;1702879;82;21076;-61
2021/05/26 05:22:56;;;;;;;13.35;9.58;;;;;;;15.63;100.00;99525.41;1744747;81;20993;-61
2021/05/26 05:25:23;;;;;;;5.78;5.28;;;;;;;15.64;100.00;99529.16;1755342;81;21790;-60
2021/05/26 05:27:50;;;;;;;7.33;5.15;;;;;;;15.67;100.00;99533.73;1755529;81;20947;-61
2021/05/26 05:30:19;;;;;;;8.23;4.80;;;;;;;15.69;100.00;99541.03;1747773;81;21113;-62
2021/05/26 05:32:45;;;;;;;;;;;;;;;15.72;100.00;99546.69;1751575;80;21229;-61
2021/05/26 05:35:13;;;;;;;8.83;5.87;;;;;;;15.71;100.00;99546.44;1684146;85;20608;-61
2021/05/26 05:37:40;;;;;;;10.25;5.37;;;;;;;15.70;100.00;99554.28;1680692;85;21129;-61
2021/05/26 05:40:08;;;;;;;6.42;5.83;;;;;;;15.70;100.00;99548.87;1709918;83;20884;-62
2021/05/26 05:42:35;;;;;;;10.75;5.45;;;;;;;15.71;100.00;99553.76;1710076;83;21008;-61
2021/05/26 05:45:04;;;;;;;10.38;5.47;;;;;;;15.70;100.00;99553.48;1702626;81;21073;-61
2021/05/26 05:47:32;;;;;;;7.03;5.70;;;;;;;15.68;100.00;99552.92;1682508;85;20994;-62
2021/05/26 05:49:59;;;;;;;7.12;4.97;;;;;;;15.65;100.00;99564.61;1733394;81;21619;-63
2021/05/26 05:52:26;;;;;;;7.28;6.42;;;;;;;15.63;100.00;99567.34;1723871;83;21069;-62
2021/05/26 05:54:53;;;;;;;7.33;5.03;;;;;;;15.61;100.00;99573.03;1724052;83;21096;-63
2021/05/26 05:57:20;;;;;;;8.88;5.87;;;;;;;15.56;100.00;99579.84;1724018;83;20929;-61
2021/05/26 05:59:47;;;;;;;7.53;5.25;;;;;;;15.55;100.00;99581.47;1724024;83;21177;-60
2021/05/26 06:02:15;;;;;;;;;;;;;;;15.53;100.00;99579.59;1728215;81;20987;-61
2021/05/26 06:04:43;;;;;;;9.40;5.78;;;;;;;15.52;100.00;99585.55;1733546;81;20263;-61
2021/05/26 06:07:10;;;;;;;7.47;5.65;;;;;;;15.49;100.00;99588.84;1724326;83;20895;-61
2021/05/26 06:09:37;;;;;;;8.00;5.20;;;;;;;15.48;100.00;99599.93;1740503;81;21152;-61
2021/05/26 06:12:06;;;;;;;6.25;5.62;;;;;;;15.48;100.00;99608.84;1758507;80;21049;-60
2021/05/26 06:14:33;;;;;;;6.85;5.37;;;;;;;15.44;100.00;99605.12;1718848;82;21761;-60
2021/05/26 06:17:00;;;;;;;10.30;6.15;;;;;;;15.41;100.00;99608.40;1725764;81;21122;-61
2021/05/26 06:19:27;;;;;;;9.05;5.83;;;;;;;15.36;100.00;99607.06;1757246;81;20963;-61
2021/05/26 06:21:54;;;;;;;14.87;6.67;;;;;;;15.27;100.00;99609.59;1757230;80;21098;-63
2021/05/26 06:24:23;;;;;;;8.65;6.47;;;;;;;15.19;100.00;99615.06;1721482;83;21133;-60
2021/05/26 06:26:51;;;;;;;12.30;6.97;;;;;;;15.13;100.00;99605.91;1690440;84;22289;-62
2021/05/26 06:29:19;;;;;;;;;;;;;;;15.13;100.00;99611.32;1704222;84;21000;-61
2021/05/26 06:31:48;;;;;;;9.98;6.25;;;;;;;15.13;100.00;99615.38;1657261;84;20212;-62
2021/05/26 06:34:16;;;;;;;9.05;6.53;;;;;;;15.13;100.00;99623.48;1693787;84;21618;-61
2021/05/26 06:36:43;;;;;;;9.75;7.53;;;;;;;15.12;100.00;99621.88;1698678;84;21062;-61
2021/05/26 06:39:13;;;;;;;15.50;13.50;;;;;;;15.08;100.00;99619.47;1691574;83;21087;-62
2021/05/26 06:41:42;;;;;;;16.45;7.50;;;;;;;15.08;100.00;99620.27;1681603;85;21055;-66
2021/05/26 06:44:12;;;;;;;14.90;6.90;;;;;;;15.05;100.00;99618.14;1694095;84;21108;-66
2021/05/26 06:46:40;;;;;;;12.53;6.83;;;;;;;15.01;100.00;99618.44;1684010;84;21103;-67
2021/05/26 06:49:08;;;;;;;9.33;7.17;;;;;;;14.99;100.00;99626.01;1693902;84;21136;-65
2021/05/26 06:51:35;;;;;;;8.05;7.05;;;;;;;14.97;100.00;99635.77;1700681;84;21179;-67
2021/05/26 06:54:08;;;;;;;12.28;6.97;;;;;;;14.96;100.00;99634.69;1700497;84;21028;-67
2021/05/26 06:56:35;;;;;;;7.47;5.90;;;;;;;14.93;100.00;99637.95;1699891;83;21020;-65
2021/05/26 06:59:02;;;;;;;8.50;6.00;;;;;;;14.93;100.00;99633.35;1699155;83;21791;-65
2021/05/26 07:01:34;;;;;;;8.58;5.15;;;;;;;14.91;100.00;99639.58;1688981;83;21096;-63
2021/05/26 07:04:08;;;;;;;8.23;5.92;;;;;;;14.86;100.00;99634.76;1681321;83;21466;-68
2021/05/26 07:07:27;;;;;;;6.35;5.70;;;;;;;14.83;100.00;99644.78;1554044;89;21192;-69
2021/05/26 07:09:54;;;;;;;7.50;5.83;;;;;;;14.81;100.00;99649.66;1545433;92;21101;-69
2021/05/26 07:12:21;;;;;;;6.60;5.40;;;;;;;14.72;100.00;99654.30;1547231;91;21190;-65
2021/05/26 07:15:30;;;;;;;6.08;4.80;;;;;;;14.65;100.00;99657.02;1560815;90;21822;-69
2021/05/26 07:17:56;;;;;;;6.12;5.10;;;;;;;14.55;100.00;99652.47;1596368;89;21099;-67
2021/05/26 07:23:16;;;;;;;8.33;4.15;;;;;;;14.36;100.00;99651.73;1634421;86;21672;-67
2021/05/26 07:25:46;;;;;;;4.83;4.33;;;;;;;14.38;100.00;99648.77;1629738;87;21105;-67
2021/05/26 07:28:16;;;;;;;;;;;;;;;14.37;100.00;99653.33;1616019;87;21108;-69
2021/05/26 07:30:43;;;;;;;5.72;4.97;;;;;;;14.48;100.00;99646.56;1592481;88;21113;-66
2021/05/26 07:33:18;;;;;;;8.08;4.67;;;;;;;14.53;100.00;99643.83;1629084;87;20950;-68
2021/05/26 07:36:00;;;;;;;5.25;4.20;;;;;;;14.66;100.00;99645.95;1633997;86;21114;-67
2021/05/26 07:38:31;;;;;;;6.05;4.25;;;;;;;14.61;100.00;99650.02;1624152;87;21106;-67
2021/05/26 07:41:09;;;;;;;5.12;4.53;;;;;;;14.54;100.00;99653.02;1604598;86;21112;-65
2021/05/26 07:43:41;;;;;;;5.80;4.20;;;;;;;14.55;100.00;99653.30;1643108;83;21563;-69
2021/05/26 07:46:13;;;;;;;4.67;3.98;;;;;;;14.49;100.00;99653.56;1677436;84;21078;-67
2021/05/26 07:48:43;;;;;;;4.92;4.22;;;;;;;14.47;100.00;99651.67;1680535;84;21046;-68
2021/05/26 07:51:38;;;;;;;4.67;3.12;;;;;;;14.48;100.00;99650.61;1684699;83;21152;-69
2021/05/26 07:54:06;;;;;;;5.15;3.87;;;;;;;14.55;100.00;99652.47;1575476;89;21132;-68
2021/05/26 07:56:35;;;;;;;5.87;3.98;;;;;;;14.57;100.00;99652.45;1610541;89;21381;-68
2021/05/26 07:59:03;;;;;;;3.77;3.47;;;;;;;14.66;100.00;99654.59;1610454;89;21030;-67
2021/05/26 08:01:33;;;;;;;4.15;3.22;;;;;;;14.62;100.00;99658.38;1614890;87;21614;-67
2021/05/26 08:04:12;;;;;;;4.95;3.62;;;;;;;14.59;100.00;99660.30;1626924;87;21051;-67
2021/05/26 08:06:39;;;;;;;3.90;3.60;;;;;;;14.50;100.00;99674.91;1627994;87;21088;-67
2021/05/26 08:09:06;;;;;;;9.08;3.40;;;;;;;14.45;100.00;99680.84;1627910;87;21322;-67
2021/05/26 08:11:36;;;;;;;7.75;4.10;;;;;;;14.44;100.00;99685.99;1630716;87;21012;-66
2021/05/26 08:14:14;;;;;;;4.42;4.03;;;;;;;14.51;100.00;99683.81;1626063;87;21044;-66
2021/05/26 08:16:41;;;;;;;8.28;4.37;;;;;;;14.48;100.00;99681.67;1631493;87;21666;-65
2021/05/26 08:19:08;;;;;;;7.45;4.47;;;;;;;14.44;100.00;99677.34;1631822;87;21100;-67
2021/05/26 08:21:44;;;;;;;6.55;4.22;;;;;;;14.46;100.00;99679.78;1630649;87;21673;-69
2021/05/26 08:24:14;;;;;;;4.83;3.87;;;;;;;14.54;100.00;99681.93;1631064;87;21037;-65
2021/05/26 08:26:41;;;;;;;4.70;4.30;;;;;;;14.63;100.00;99680.28;1631450;87;21168;-65
2021/05/26 08:29:07;;;;;;;3.90;3.60;;;;;;;14.70;100.00;99686.19;1631215;87;21151;-66
2021/05/26 08:31:34;;;;;;;4.90;4.25;;;;;;;14.70;100.00;99696.99;1631368;87;21060;-66
2021/05/26 08:34:01;;;;;;;7.30;4.37;;;;;;;14.83;100.00;99700.17;1631668;87;21160;-62
2021/05/26 08:36:27;;;;;;;6.95;4.72;;;;;;;15.08;100.00;99694.61;1632181;86;21036;-64
2021/05/26 08:38:54;;;;;;;9.40;5.80;;;;;;;15.39;100.00;99691.16;1634671;87;21013;-63
2021/05/26 08:41:23;;;;;;;6.33;4.37;;;;;;;15.64;100.00;99696.91;1635221;87;21156;-69
2021/05/26 08:43:51;;;;;;;5.03;4.42;;;;;;;15.83;100.00;99698.40;1634877;86;21088;-66
2021/05/26 08:46:23;;;;;;;;;;;;;;;15.80;100.00;99696.27;1598071;87;21185;-64
2021/05/26 08:48:53;;;;;;;7.42;5.08;;;;;;;15.99;100.00;99699.60;1611613;89;20178;-66
2021/05/26 08:51:21;;;;;;;11.08;7.17;;;;;;;16.22;100.00;99694.77;1691917;83;21146;-67
2021/05/26 08:53:48;;;;;;;5.40;4.90;;;;;;;16.39;100.00;99690.24;1710224;82;21059;-65
2021/05/26 08:56:15;;;;;;;7.75;3.90;;;;;;;16.56;100.00;99694.36;1705022;84;21064;-63
2021/05/26 08:58:43;;;;;;;5.78;3.87;;;;;;;16.60;100.00;99699.47;1705465;83;21059;-65
2021/05/26 09:01:09;;;;;;;4.57;4.03;;;;;;;16.65;100.00;99702.12;1706740;82;21585;-63
2021/05/26 09:03:39;;;;;;;5.97;4.40;;;;;;;16.61;100.00;99701.91;1718477;82;20907;-66
2021/05/26 09:06:13;;;;;;;6.15;3.70;;;;;;;16.91;100.00;99703.43;1718013;82;21408;-65
2021/05/26 09:08:53;;;;;;;5.65;4.10;;;;;;;16.70;100.00;99710.98;1718009;83;20990;-66
2021/05/26 09:11:31;;;;;;;4.58;3.60;;;;;;;16.27;100.00;99712.86;1718329;83;21690;-65
2021/05/26 09:14:10;;;;;;;10.05;3.87;;;;;;;15.86;100.00;99725.44;1718194;83;20959;-67
2021/05/26 09:16:37;;;;;;;4.33;3.62;;;;;;;15.42;100.00;99734.42;1717981;83;21042;-64
2021/05/26 09:19:09;;;;;;;5.05;4.08;;;;;;;15.18;100.00;99725.63;1718525;83;21006;-66
2021/05/26 09:21:52;;;;;;;7.47;5.08;;;;;;;15.14;100.00;99717.01;1732469;81;21124;-64
2021/05/26 09:24:41;;;;;;;10.58;7.50;;;;;;;15.32;100.00;99712.86;1730981;81;21086;-61
2021/05/26 09:27:11;;;;;;;13.93;10.32;;;;;;;15.43;100.00;99713.03;1643898;85;21094;-63
2021/05/26 09:29:41;;;;;;;10.75;7.70;;;;;;;15.35;100.00;99714.44;1647424;85;21056;-62
2021/05/26 09:32:20;;;;;;;8.25;6.58;;;;;;;15.19;100.00;99702.13;1652932;85;21925;-63
2021/05/26 09:34:54;;;;;;;12.93;8.43;;;;;;;15.14;100.00;99704.32;1663201;84;21670;-62
2021/05/26 09:37:28;;;;;;;9.45;6.75;;;;;;;15.16;100.00;99717.02;1673092;85;21153;-63
2021/05/26 09:40:13;;;;;;;7.85;5.22;;;;;;;15.08;100.00;99728.41;1672013;85;21138;-64
2021/05/26 09:42:46;;;;;;;9.15;4.92;;;;;;;14.90;100.00;99738.52;1674164;85;22079;-65
2021/05/26 09:45:27;;;;;;;12.05;5.15;;;;;;;14.82;100.00;99745.31;1672743;85;21074;-68
2021/05/26 09:47:56;;;;;;;8.48;4.70;;;;;;;14.70;100.00;99756.43;1652576;85;21162;-65
2021/05/26 09:50:37;;;;;;;8.03;5.42;;;;;;;14.56;100.00;99752.14;1673871;84;22318;-66
2021/05/26 09:53:15;;;;;;;7.05;5.35;;;;;;;14.67;100.00;99750.20;1651936;85;21173;-67
2021/05/26 09:55:46;;;;;;;12.65;6.22;;;;;;;14.85;100.00;99749.35;1667498;84;21016;-67
2021/05/26 09:58:16;;;;;;;9.35;5.58;;;;;;;14.94;100.00;99742.26;1672793;85;21641;-66
2021/05/26 10:00:46;;;;;;;7.35;5.70;;;;;;;14.99;100.00;99739.53;1672543;85;21707;-66
2021/05/26 10:03:13;;;;;;;9.45;5.97;;;;;;;15.03;100.00;99748.70;1686862;82;21138;-67
2021/05/26 10:05:41;;;;;;;10.20;5.95;;;;;;;14.88;100.00;99743.38;1706948;82;21101;-67
2021/05/26 10:08:26;;;;;;;10.10;5.95;;;;;;;14.76;100.00;99752.61;1722481;82;21001;-69
2021/05/26 10:11:15;;;;;;;6.83;5.72;;;;;;;14.66;100.00;99745.09;1720968;82;21030;-71
2021/05/26 10:13:47;;;;;;;8.88;6.08;;;;;;;14.76;100.00;99745.05;1730284;82;21072;-67
2021/05/26 10:16:17;;;;;;;;;;;;;;;14.93;100.00;99740.11;1721225;82;21002;-66
2021/05/26 10:18:46;;;;;;;8.75;6.53;;;;;;;15.09;100.00;99744.91;1716310;82;20571;-68
2021/05/26 10:21:21;;;;;;;6.65;5.67;;;;;;;15.07;100.00;99745.72;1670368;84;21059;-65
2021/05/26 10:23:55;;;;;;;6.67;5.97;;;;;;;14.93;100.00;99744.70;1691317;83;21040;-67
2021/05/26 10:27:06;;;;;;;12.55;6.47;;;;;;;15.06;100.00;99744.64;1687387;83;21065;-69
2021/05/26 10:29:39;;;;;;;7.95;6.65;;;;;;;15.17;100.00;99748.36;1676136;84;21158;-66
2021/05/26 10:32:21;;;;;;;7.00;6.10;;;;;;;15.36;100.00;99747.17;1681102;84;21562;-63
2021/05/26 10:34:54;;;;;;;13.80;8.63;;;;;;;15.45;100.00;99744.66;1657644;84;21018;-66
2021/05/26 10:37:36;;;;;;;9.90;7.75;;;;;;;15.45;100.00;99750.08;1681759;83;21144;-65
2021/05/26 10:40:30;;;;;;;15.63;7.83;;;;;;;15.63;100.00;99748.06;1676137;85;21620;-62
2021/05/26 10:43:19;;;;;;;12.30;6.08;;;;;;;15.75;100.00;99749.61;1676008;85;21121;-63
2021/05/26 10:45:53;;;;;;;6.47;5.70;;;;;;;15.74;100.00;99746.66;1657829;85;21127;-65
2021/05/26 10:48:44;;;;;;;6.80;6.10;;;;;;;15.56;100.00;99750.28;1675329;83;21090;-65
2021/05/26 10:51:12;;;;;;;10.45;5.72;;;;;;;15.85;100.00;99750.91;1675381;85;21628;-63
2021/05/26 10:53:44;;;;;;;7.85;6.58;;;;;;;16.18;100.00;99741.66;1676078;85;21677;-67
2021/05/26 10:56:36;;;;;;;9.95;5.87;;;;;;;16.32;100.00;99739.09;1652298;85;21128;-65
2021/05/26 10:59:14;;;;;;;9.13;5.58;;;;;;;16.51;100.00;99739.93;1691538;84;21081;-63
2021/05/26 11:02:09;;;;;;;8.73;5.67;;;;;;;16.76;100.00;99739.40;1691321;84;21139;-63
2021/05/26 11:04:40;;;;;;;8.38;5.20;;;;;;;16.54;100.00;99738.58;1681934;85;21061;-64
2021/05/26 11:07:29;;;;;;;6.45;5.35;;;;;;;16.42;100.00;99732.20;1691512;84;21665;-63
2021/05/26 11:10:07;;;;;;;10.10;5.47;;;;;;;16.56;100.00;99729.59;1691295;82;21530;-62
2021/05/26 11:13:00;;;;;;;7.22;5.55;;;;;;;16.96;100.00;99738.36;1690890;84;21214;-63
2021/05/26 11:15:44;;;;;;;7.30;4.97;;;;;;;17.26;100.00;99744.70;1684955;84;21014;-61
2021/05/26 11:20:49;;;;;;;7.87;4.47;;;;;;;17.70;100.00;99743.48;1695182;83;21157;-64
2021/05/26 11:23:16;;;;;;;13.30;5.35;;;;;;;17.33;100.00;99738.36;1695829;84;21731;-63
2021/05/26 11:26:20;;;;;;;7.50;4.62;;;;;;;17.46;100.00;99726.51;1695919;82;21055;-64
2021/05/26 11:28:49;;;;;;;6.85;4.60;;;;;;;17.73;100.00;99732.03;1620080;87;21105;-63
2021/05/26 11:31:16;;;;;;;11.05;4.55;;;;;;;18.15;100.00;99729.45;1637017;87;21920;-64
2021/05/26 11:33:55;;;;;;;6.65;4.08;;;;;;;18.31;100.00;99729.98;1633597;86;21155;-63
2021/05/26 11:36:46;;;;;;;5.28;4.08;;;;;;;18.32;100.00;99737.02;1584668;89;21140;-65
2021/05/26 11:39:27;;;;;;;4.42;4.00;;;;;;;17.89;100.00;99738.61;1585840;90;21116;-63
2021/05/26 11:42:12;;;;;;;5.60;3.60;;;;;;;17.77;100.00;99741.20;1564293;90;21761;-63
2021/05/26 11:44:47;;;;;;;4.58;4.10;;;;;;;18.03;100.00;99743.53;1585490;89;21204;-64
2021/05/26 11:47:14;;;;;;;8.33;3.50;;;;;;;18.21;100.00;99745.92;1610405;87;21087;-62
2021/05/26 11:49:42;;;;;;;4.15;3.70;;;;;;;18.49;100.00;99741.86;1612692;87;21211;-62
2021/05/26 11:52:10;;;;;;;7.50;3.72;;;;;;;18.43;100.00;99746.59;1626132;87;21148;-63
2021/05/26 11:55:04;;;;;;;6.92;3.77;;;;;;;18.49;100.00;99739.94;1584070;89;22005;-64